sensor_id;sensor_type;location;lat;lon;timestamp;temperature;humidity
33831;DHT22;20137;48.834;8.732;2024-03-17T00:00:45;5.60;99.90
33831;DHT22;20137;48.834;8.732;2024-03-17T00:03:16;5.50;99.90
33831;DHT22;20137;48.834;8.732;2024-03-17T00:05:42;5.50;99.90
33831;DHT22;20137;48.834;8.732;2024-03-17T00:08:08;5.50;99.90
33831;DHT22;20137;48.834;8.732;2024-03-17T00:10:34;5.40;99.90
33831;DHT22;20137;48.834;8.732;2024-03-17T00:12:59;5.40;99.90
33831;DHT22;20137;48.834;8.732;2024-03-17T00:15:26;5.40;99.90
33831;DHT22;20137;48.834;8.732;2024-03-17T00:17:52;5.40;99.90
33831;DHT22;20137;48.834;8.732;2024-03-17T00:20:18;5.30;99.90
33831;DHT22;20137;48.834;8.732;2024-03-17T00:22:48;5.30;99.90
33831;DHT22;20137;48.834;8.732;2024-03-17T00:25:14;5.30;99.90
33831;DHT22;20137;48.834;8.732;2024-03-17T00:27:39;5.20;99.90
33831;DHT22;20137;48.834;8.732;2024-03-17T00:30:09;5.20;99.90
33831;DHT22;20137;48.834;8.732;2024-03-17T00:32:41;5.20;99.90
33831;DHT22;20137;48.834;8.732;2024-03-17T00:35:10;5.20;99.90
33831;DHT22;20137;48.834;8.732;2024-03-17T00:37:39;5.20;99.90
33831;DHT22;20137;48.834;8.732;2024-03-17T00:40:05;5.20;99.90
33831;DHT22;20137;48.834;8.732;2024-03-17T00:42:32;5.20;99.90
33831;DHT22;20137;48.834;8.732;2024-03-17T00:44:58;5.20;99.90
33831;DHT22;20137;48.834;8.732;2024-03-17T00:47:25;5.20;99.90
33831;DHT22;20137;48.834;8.732;2024-03-17T00:49:51;5.30;99.90
33831;DHT22;20137;48.834;8.732;2024-03-17T00:52:17;5.20;99.90
33831;DHT22;20137;48.834;8.732;2024-03-17T00:54:43;5.20;99.90
33831;DHT22;20137;48.834;8.732;2024-03-17T00:57:09;5.10;99.90
33831;DHT22;20137;48.834;8.732;2024-03-17T00:59:34;5.10;99.90
33831;DHT22;20137;48.834;8.732;2024-03-17T01:02:00;5.10;99.90
33831;DHT22;20137;48.834;8.732;2024-03-17T01:04:25;5.00;99.90
33831;DHT22;20137;48.834;8.732;2024-03-17T01:06:51;5.10;99.90
33831;DHT22;20137;48.834;8.732;2024-03-17T01:09:17;4.90;99.90
33831;DHT22;20137;48.834;8.732;2024-03-17T01:11:42;4.90;99.90
33831;DHT22;20137;48.834;8.732;2024-03-17T01:14:09;4.90;99.90
33831;DHT22;20137;48.834;8.732;2024-03-17T01:16:34;4.90;99.90
33831;DHT22;20137;48.834;8.732;2024-03-17T01:19:00;4.80;99.90
33831;DHT22;20137;48.834;8.732;2024-03-17T01:21:25;4.90;99.90
33831;DHT22;20137;48.834;8.732;2024-03-17T01:23:52;4.90;99.90
33831;DHT22;20137;48.834;8.732;2024-03-17T01:26:18;4.80;99.90
33831;DHT22;20137;48.834;8.732;2024-03-17T01:28:44;4.80;99.90
33831;DHT22;20137;48.834;8.732;2024-03-17T01:31:09;4.80;99.90
33831;DHT22;20137;48.834;8.732;2024-03-17T01:33:35;4.80;99.90
33831;DHT22;20137;48.834;8.732;2024-03-17T01:36:01;4.80;99.90
33831;DHT22;20137;48.834;8.732;2024-03-17T01:38:26;4.80;99.90
33831;DHT22;20137;48.834;8.732;2024-03-17T01:40:52;4.80;99.90
33831;DHT22;20137;48.834;8.732;2024-03-17T01:43:17;4.80;99.90
33831;DHT22;20137;48.834;8.732;2024-03-17T01:45:43;4.80;99.90
33831;DHT22;20137;48.834;8.732;2024-03-17T01:48:13;4.80;99.90
33831;DHT22;20137;48.834;8.732;2024-03-17T01:50:45;4.80;99.90
33831;DHT22;20137;48.834;8.732;2024-03-17T01:53:13;4.90;99.90
33831;DHT22;20137;48.834;8.732;2024-03-17T01:55:43;5.00;99.90
33831;DHT22;20137;48.834;8.732;2024-03-17T01:58:10;4.90;99.90
33831;DHT22;20137;48.834;8.732;2024-03-17T02:00:39;5.00;99.90
33831;DHT22;20137;48.834;8.732;2024-03-17T02:03:06;5.00;99.90
33831;DHT22;20137;48.834;8.732;2024-03-17T02:05:34;5.10;99.90
33831;DHT22;20137;48.834;8.732;2024-03-17T02:08:00;5.10;99.90
33831;DHT22;20137;48.834;8.732;2024-03-17T02:10:27;5.20;99.90
33831;DHT22;20137;48.834;8.732;2024-03-17T02:12:53;5.20;99.90
33831;DHT22;20137;48.834;8.732;2024-03-17T02:15:19;5.30;99.90
33831;DHT22;20137;48.834;8.732;2024-03-17T02:17:44;5.30;99.90
33831;DHT22;20137;48.834;8.732;2024-03-17T02:20:10;5.40;99.90
33831;DHT22;20137;48.834;8.732;2024-03-17T02:22:37;5.40;99.90
33831;DHT22;20137;48.834;8.732;2024-03-17T02:25:03;5.40;99.90
33831;DHT22;20137;48.834;8.732;2024-03-17T02:27:29;5.40;99.90
33831;DHT22;20137;48.834;8.732;2024-03-17T02:29:55;5.40;99.90
33831;DHT22;20137;48.834;8.732;2024-03-17T02:32:21;5.40;99.90
33831;DHT22;20137;48.834;8.732;2024-03-17T02:34:48;5.40;99.90
33831;DHT22;20137;48.834;8.732;2024-03-17T02:37:13;5.60;99.90
33831;DHT22;20137;48.834;8.732;2024-03-17T02:39:39;5.40;99.90
33831;DHT22;20137;48.834;8.732;2024-03-17T02:42:09;5.40;99.90
33831;DHT22;20137;48.834;8.732;2024-03-17T02:44:36;5.40;99.90
33831;DHT22;20137;48.834;8.732;2024-03-17T02:47:04;5.30;99.90
33831;DHT22;20137;48.834;8.732;2024-03-17T02:49:31;5.30;99.90
33831;DHT22;20137;48.834;8.732;2024-03-17T02:52:07;5.30;99.90
33831;DHT22;20137;48.834;8.732;2024-03-17T02:54:39;5.30;99.90
33831;DHT22;20137;48.834;8.732;2024-03-17T02:57:06;5.30;99.90
33831;DHT22;20137;48.834;8.732;2024-03-17T02:59:34;5.20;99.90
33831;DHT22;20137;48.834;8.732;2024-03-17T03:02:00;5.20;99.90
33831;DHT22;20137;48.834;8.732;2024-03-17T03:04:26;5.20;99.90
33831;DHT22;20137;48.834;8.732;2024-03-17T03:06:53;5.10;99.90
33831;DHT22;20137;48.834;8.732;2024-03-17T03:09:18;5.00;99.90
33831;DHT22;20137;48.834;8.732;2024-03-17T03:11:51;5.20;99.90
33831;DHT22;20137;48.834;8.732;2024-03-17T03:14:17;5.20;99.90
33831;DHT22;20137;48.834;8.732;2024-03-17T03:16:43;5.10;99.90
33831;DHT22;20137;48.834;8.732;2024-03-17T03:19:09;5.10;99.90
33831;DHT22;20137;48.834;8.732;2024-03-17T03:21:35;5.10;99.90
33831;DHT22;20137;48.834;8.732;2024-03-17T03:24:01;5.10;99.90
33831;DHT22;20137;48.834;8.732;2024-03-17T03:26:26;5.10;99.90
33831;DHT22;20137;48.834;8.732;2024-03-17T03:28:54;5.10;99.90
33831;DHT22;20137;48.834;8.732;2024-03-17T03:31:21;5.10;99.90
33831;DHT22;20137;48.834;8.732;2024-03-17T03:33:47;5.00;99.90
33831;DHT22;20137;48.834;8.732;2024-03-17T03:36:14;5.00;99.90
33831;DHT22;20137;48.834;8.732;2024-03-17T03:38:40;5.00;99.90
33831;DHT22;20137;48.834;8.732;2024-03-17T03:41:10;5.00;99.90
33831;DHT22;20137;48.834;8.732;2024-03-17T03:43:37;5.00;99.90
33831;DHT22;20137;48.834;8.732;2024-03-17T03:46:03;5.00;99.90
33831;DHT22;20137;48.834;8.732;2024-03-17T03:48:29;5.10;99.90
33831;DHT22;20137;48.834;8.732;2024-03-17T03:50:58;5.10;99.90
33831;DHT22;20137;48.834;8.732;2024-03-17T03:53:24;5.10;99.90
33831;DHT22;20137;48.834;8.732;2024-03-17T03:55:49;5.20;99.90
33831;DHT22;20137;48.834;8.732;2024-03-17T03:58:15;5.10;99.90
33831;DHT22;20137;48.834;8.732;2024-03-17T04:00:41;5.10;99.90
33831;DHT22;20137;48.834;8.732;2024-03-17T04:03:11;5.00;99.90
33831;DHT22;20137;48.834;8.732;2024-03-17T04:05:37;5.10;99.90
33831;DHT22;20137;48.834;8.732;2024-03-17T04:08:02;5.00;99.90
33831;DHT22;20137;48.834;8.732;2024-03-17T04:10:28;5.00;99.90
33831;DHT22;20137;48.834;8.732;2024-03-17T04:12:53;5.10;99.90
33831;DHT22;20137;48.834;8.732;2024-03-17T04:15:19;5.00;99.90
33831;DHT22;20137;48.834;8.732;2024-03-17T04:17:45;5.00;99.90
33831;DHT22;20137;48.834;8.732;2024-03-17T04:20:11;4.90;99.90
33831;DHT22;20137;48.834;8.732;2024-03-17T04:22:40;4.90;99.90
33831;DHT22;20137;48.834;8.732;2024-03-17T04:25:06;4.90;99.90
33831;DHT22;20137;48.834;8.732;2024-03-17T04:27:35;4.90;99.90
33831;DHT22;20137;48.834;8.732;2024-03-17T04:30:01;4.80;99.90
33831;DHT22;20137;48.834;8.732;2024-03-17T04:32:27;4.80;99.90
33831;DHT22;20137;48.834;8.732;2024-03-17T04:34:53;4.80;99.90
33831;DHT22;20137;48.834;8.732;2024-03-17T04:37:19;4.80;99.90
33831;DHT22;20137;48.834;8.732;2024-03-17T04:39:46;4.80;99.90
33831;DHT22;20137;48.834;8.732;2024-03-17T04:42:12;4.80;99.90
33831;DHT22;20137;48.834;8.732;2024-03-17T04:44:43;4.80;99.90
33831;DHT22;20137;48.834;8.732;2024-03-17T04:47:09;4.80;99.90
33831;DHT22;20137;48.834;8.732;2024-03-17T04:49:39;4.70;99.90
33831;DHT22;20137;48.834;8.732;2024-03-17T04:52:05;4.70;99.90
33831;DHT22;20137;48.834;8.732;2024-03-17T04:54:31;4.70;99.90
33831;DHT22;20137;48.834;8.732;2024-03-17T04:56:57;4.60;99.90
33831;DHT22;20137;48.834;8.732;2024-03-17T04:59:23;4.60;99.90
33831;DHT22;20137;48.834;8.732;2024-03-17T05:01:49;4.60;99.90
33831;DHT22;20137;48.834;8.732;2024-03-17T05:04:15;4.60;99.90
33831;DHT22;20137;48.834;8.732;2024-03-17T05:06:41;4.60;99.90
33831;DHT22;20137;48.834;8.732;2024-03-17T05:09:14;4.50;99.90
33831;DHT22;20137;48.834;8.732;2024-03-17T05:11:40;4.40;99.90
33831;DHT22;20137;48.834;8.732;2024-03-17T05:14:07;4.40;99.90
33831;DHT22;20137;48.834;8.732;2024-03-17T05:16:32;4.40;99.90
33831;DHT22;20137;48.834;8.732;2024-03-17T05:18:58;4.50;99.90
33831;DHT22;20137;48.834;8.732;2024-03-17T05:21:27;4.40;99.90
33831;DHT22;20137;48.834;8.732;2024-03-17T05:23:56;4.30;99.90
33831;DHT22;20137;48.834;8.732;2024-03-17T05:26:23;4.30;99.90
33831;DHT22;20137;48.834;8.732;2024-03-17T05:28:49;4.30;99.90
33831;DHT22;20137;48.834;8.732;2024-03-17T05:31:15;4.30;99.90
33831;DHT22;20137;48.834;8.732;2024-03-17T05:33:43;4.20;99.90
33831;DHT22;20137;48.834;8.732;2024-03-17T05:36:09;4.20;99.90
33831;DHT22;20137;48.834;8.732;2024-03-17T05:38:34;4.20;99.90
33831;DHT22;20137;48.834;8.732;2024-03-17T05:41:01;4.20;99.90
33831;DHT22;20137;48.834;8.732;2024-03-17T05:43:38;4.20;99.90
33831;DHT22;20137;48.834;8.732;2024-03-17T05:48:33;4.30;99.90
33831;DHT22;20137;48.834;8.732;2024-03-17T05:51:01;4.30;99.90
33831;DHT22;20137;48.834;8.732;2024-03-17T05:53:28;4.40;99.90
33831;DHT22;20137;48.834;8.732;2024-03-17T05:55:53;4.40;99.90
33831;DHT22;20137;48.834;8.732;2024-03-17T05:58:20;4.50;99.90
33831;DHT22;20137;48.834;8.732;2024-03-17T06:00:46;4.50;99.90
33831;DHT22;20137;48.834;8.732;2024-03-17T06:03:12;4.60;99.90
33831;DHT22;20137;48.834;8.732;2024-03-17T06:05:40;4.80;99.90
33831;DHT22;20137;48.834;8.732;2024-03-17T06:08:09;4.80;99.90
33831;DHT22;20137;48.834;8.732;2024-03-17T06:10:36;4.90;99.90
33831;DHT22;20137;48.834;8.732;2024-03-17T06:13:02;4.80;99.90
33831;DHT22;20137;48.834;8.732;2024-03-17T06:15:28;4.90;99.90
33831;DHT22;20137;48.834;8.732;2024-03-17T06:17:54;5.00;99.90
33831;DHT22;20137;48.834;8.732;2024-03-17T06:20:21;5.10;99.90
33831;DHT22;20137;48.834;8.732;2024-03-17T06:22:51;5.20;99.90
33831;DHT22;20137;48.834;8.732;2024-03-17T06:25:17;5.40;99.90
33831;DHT22;20137;48.834;8.732;2024-03-17T06:27:42;5.50;99.90
33831;DHT22;20137;48.834;8.732;2024-03-17T06:30:15;5.70;99.90
33831;DHT22;20137;48.834;8.732;2024-03-17T06:32:41;5.90;99.90
33831;DHT22;20137;48.834;8.732;2024-03-17T06:35:08;6.00;99.90
33831;DHT22;20137;48.834;8.732;2024-03-17T06:37:35;6.20;99.90
33831;DHT22;20137;48.834;8.732;2024-03-17T06:40:02;6.40;99.90
33831;DHT22;20137;48.834;8.732;2024-03-17T06:42:29;6.50;99.90
33831;DHT22;20137;48.834;8.732;2024-03-17T06:44:55;6.80;99.90
33831;DHT22;20137;48.834;8.732;2024-03-17T06:47:21;6.80;99.90
33831;DHT22;20137;48.834;8.732;2024-03-17T06:49:46;7.00;99.90
33831;DHT22;20137;48.834;8.732;2024-03-17T06:52:12;7.20;99.90
33831;DHT22;20137;48.834;8.732;2024-03-17T06:54:38;7.40;99.90
33831;DHT22;20137;48.834;8.732;2024-03-17T06:57:03;7.40;99.90
33831;DHT22;20137;48.834;8.732;2024-03-17T06:59:33;7.60;99.90
33831;DHT22;20137;48.834;8.732;2024-03-17T07:01:58;7.70;99.90
33831;DHT22;20137;48.834;8.732;2024-03-17T07:04:24;7.80;99.90
33831;DHT22;20137;48.834;8.732;2024-03-17T07:06:49;8.00;99.90
33831;DHT22;20137;48.834;8.732;2024-03-17T07:09:16;8.10;99.90
33831;DHT22;20137;48.834;8.732;2024-03-17T07:11:43;8.10;99.90
33831;DHT22;20137;48.834;8.732;2024-03-17T07:14:09;8.30;99.90
33831;DHT22;20137;48.834;8.732;2024-03-17T07:16:35;8.40;99.90
33831;DHT22;20137;48.834;8.732;2024-03-17T07:19:03;8.60;99.90
33831;DHT22;20137;48.834;8.732;2024-03-17T07:21:30;8.70;99.90
33831;DHT22;20137;48.834;8.732;2024-03-17T07:23:56;8.90;99.90
33831;DHT22;20137;48.834;8.732;2024-03-17T07:26:25;9.00;99.90
33831;DHT22;20137;48.834;8.732;2024-03-17T07:28:50;9.20;99.90
33831;DHT22;20137;48.834;8.732;2024-03-17T07:31:16;9.40;99.90
33831;DHT22;20137;48.834;8.732;2024-03-17T07:33:42;9.60;99.90
33831;DHT22;20137;48.834;8.732;2024-03-17T07:36:08;9.80;99.90
33831;DHT22;20137;48.834;8.732;2024-03-17T07:38:35;9.90;99.90
33831;DHT22;20137;48.834;8.732;2024-03-17T07:41:05;10.20;99.90
33831;DHT22;20137;48.834;8.732;2024-03-17T07:43:32;10.30;99.90
33831;DHT22;20137;48.834;8.732;2024-03-17T07:46:01;10.50;99.90
33831;DHT22;20137;48.834;8.732;2024-03-17T07:48:28;10.60;99.90
33831;DHT22;20137;48.834;8.732;2024-03-17T07:51:05;10.80;99.90
33831;DHT22;20137;48.834;8.732;2024-03-17T07:53:35;10.80;99.90
33831;DHT22;20137;48.834;8.732;2024-03-17T07:56:11;10.90;99.90
33831;DHT22;20137;48.834;8.732;2024-03-17T07:58:40;10.90;99.90
33831;DHT22;20137;48.834;8.732;2024-03-17T08:01:13;10.90;99.90
33831;DHT22;20137;48.834;8.732;2024-03-17T08:03:40;11.10;99.90
33831;DHT22;20137;48.834;8.732;2024-03-17T08:06:07;11.10;99.90
33831;DHT22;20137;48.834;8.732;2024-03-17T08:08:34;11.20;99.90
33831;DHT22;20137;48.834;8.732;2024-03-17T08:11:00;11.30;99.90
33831;DHT22;20137;48.834;8.732;2024-03-17T08:13:29;11.40;99.90
33831;DHT22;20137;48.834;8.732;2024-03-17T08:16:03;11.30;99.90
33831;DHT22;20137;48.834;8.732;2024-03-17T08:18:31;11.30;99.90
33831;DHT22;20137;48.834;8.732;2024-03-17T08:20:57;11.30;99.90
33831;DHT22;20137;48.834;8.732;2024-03-17T08:23:23;11.20;99.90
33831;DHT22;20137;48.834;8.732;2024-03-17T08:26:07;11.30;99.90
33831;DHT22;20137;48.834;8.732;2024-03-17T08:28:34;11.30;99.90
33831;DHT22;20137;48.834;8.732;2024-03-17T08:31:01;11.50;99.90
33831;DHT22;20137;48.834;8.732;2024-03-17T08:33:28;11.60;99.90
33831;DHT22;20137;48.834;8.732;2024-03-17T08:36:00;11.80;99.90
33831;DHT22;20137;48.834;8.732;2024-03-17T08:38:27;11.80;99.90
33831;DHT22;20137;48.834;8.732;2024-03-17T08:40:54;11.80;99.90
33831;DHT22;20137;48.834;8.732;2024-03-17T08:43:20;11.90;99.90
33831;DHT22;20137;48.834;8.732;2024-03-17T08:45:57;11.90;99.90
33831;DHT22;20137;48.834;8.732;2024-03-17T08:48:26;12.00;99.90
33831;DHT22;20137;48.834;8.732;2024-03-17T08:50:53;12.00;99.90
33831;DHT22;20137;48.834;8.732;2024-03-17T08:53:22;12.00;99.90
33831;DHT22;20137;48.834;8.732;2024-03-17T08:55:49;12.10;99.90
33831;DHT22;20137;48.834;8.732;2024-03-17T08:58:14;12.20;99.90
33831;DHT22;20137;48.834;8.732;2024-03-17T09:00:40;12.30;99.90
33831;DHT22;20137;48.834;8.732;2024-03-17T09:03:09;12.30;99.90
33831;DHT22;20137;48.834;8.732;2024-03-17T09:05:39;12.40;99.90
33831;DHT22;20137;48.834;8.732;2024-03-17T09:08:16;12.40;99.90
33831;DHT22;20137;48.834;8.732;2024-03-17T09:10:43;12.30;99.90
33831;DHT22;20137;48.834;8.732;2024-03-17T09:13:17;12.40;99.90
33831;DHT22;20137;48.834;8.732;2024-03-17T09:15:53;12.50;99.90
33831;DHT22;20137;48.834;8.732;2024-03-17T09:18:19;12.50;99.90
33831;DHT22;20137;48.834;8.732;2024-03-17T09:20:45;12.50;99.90
33831;DHT22;20137;48.834;8.732;2024-03-17T09:23:12;12.50;99.90
33831;DHT22;20137;48.834;8.732;2024-03-17T09:25:38;12.60;99.90
33831;DHT22;20137;48.834;8.732;2024-03-17T09:28:03;12.60;99.90
33831;DHT22;20137;48.834;8.732;2024-03-17T09:30:29;12.70;99.90
33831;DHT22;20137;48.834;8.732;2024-03-17T09:32:55;12.80;99.90
33831;DHT22;20137;48.834;8.732;2024-03-17T09:35:20;12.70;99.90
33831;DHT22;20137;48.834;8.732;2024-03-17T09:37:46;12.60;99.90
33831;DHT22;20137;48.834;8.732;2024-03-17T09:40:15;12.50;99.90
33831;DHT22;20137;48.834;8.732;2024-03-17T09:42:41;12.60;99.90
33831;DHT22;20137;48.834;8.732;2024-03-17T09:45:10;12.70;99.90
33831;DHT22;20137;48.834;8.732;2024-03-17T09:47:36;12.80;99.90
33831;DHT22;20137;48.834;8.732;2024-03-17T09:50:02;13.00;99.90
33831;DHT22;20137;48.834;8.732;2024-03-17T09:52:28;13.10;99.90
33831;DHT22;20137;48.834;8.732;2024-03-17T09:55:09;13.20;99.90
33831;DHT22;20137;48.834;8.732;2024-03-17T09:57:40;13.20;99.90
33831;DHT22;20137;48.834;8.732;2024-03-17T10:00:14;13.20;99.90
33831;DHT22;20137;48.834;8.732;2024-03-17T10:02:44;13.20;99.90
33831;DHT22;20137;48.834;8.732;2024-03-17T10:05:23;13.30;99.90
33831;DHT22;20137;48.834;8.732;2024-03-17T10:07:50;13.30;99.90
33831;DHT22;20137;48.834;8.732;2024-03-17T10:10:17;13.40;99.90
33831;DHT22;20137;48.834;8.732;2024-03-17T10:12:44;13.50;99.90
33831;DHT22;20137;48.834;8.732;2024-03-17T10:15:14;13.60;99.90
33831;DHT22;20137;48.834;8.732;2024-03-17T10:17:40;13.70;99.90
33831;DHT22;20137;48.834;8.732;2024-03-17T10:20:23;13.70;99.90
33831;DHT22;20137;48.834;8.732;2024-03-17T10:23:10;13.90;99.90
33831;DHT22;20137;48.834;8.732;2024-03-17T10:25:40;13.70;99.90
33831;DHT22;20137;48.834;8.732;2024-03-17T10:28:13;13.80;99.90
33831;DHT22;20137;48.834;8.732;2024-03-17T10:30:39;13.80;99.90
33831;DHT22;20137;48.834;8.732;2024-03-17T10:33:06;13.70;99.90
33831;DHT22;20137;48.834;8.732;2024-03-17T10:35:38;13.50;99.90
33831;DHT22;20137;48.834;8.732;2024-03-17T10:38:09;13.50;99.90
33831;DHT22;20137;48.834;8.732;2024-03-17T10:40:35;13.60;99.90
33831;DHT22;20137;48.834;8.732;2024-03-17T10:43:04;13.70;99.90
33831;DHT22;20137;48.834;8.732;2024-03-17T10:45:30;13.90;99.90
33831;DHT22;20137;48.834;8.732;2024-03-17T10:48:02;14.00;99.90
33831;DHT22;20137;48.834;8.732;2024-03-17T10:50:31;14.10;99.90
33831;DHT22;20137;48.834;8.732;2024-03-17T10:53:01;14.00;99.90
33831;DHT22;20137;48.834;8.732;2024-03-17T10:55:45;14.10;99.90
33831;DHT22;20137;48.834;8.732;2024-03-17T10:58:34;14.30;99.90
33831;DHT22;20137;48.834;8.732;2024-03-17T11:01:02;14.30;99.90
33831;DHT22;20137;48.834;8.732;2024-03-17T11:03:33;14.10;99.90
33831;DHT22;20137;48.834;8.732;2024-03-17T11:06:02;14.10;99.90
33831;DHT22;20137;48.834;8.732;2024-03-17T11:08:31;13.90;99.90
33831;DHT22;20137;48.834;8.732;2024-03-17T11:10:58;14.00;99.90
33831;DHT22;20137;48.834;8.732;2024-03-17T11:13:28;14.20;99.90
33831;DHT22;20137;48.834;8.732;2024-03-17T11:15:55;14.40;99.90
33831;DHT22;20137;48.834;8.732;2024-03-17T11:20:58;14.50;99.90
33831;DHT22;20137;48.834;8.732;2024-03-17T11:23:31;14.60;99.90
33831;DHT22;20137;48.834;8.732;2024-03-17T11:25:58;14.60;99.90
33831;DHT22;20137;48.834;8.732;2024-03-17T11:31:38;14.50;99.90
33831;DHT22;20137;48.834;8.732;2024-03-17T11:34:26;14.30;99.90
33831;DHT22;20137;48.834;8.732;2024-03-17T11:36:52;14.20;99.90
33831;DHT22;20137;48.834;8.732;2024-03-17T11:39:19;14.20;99.90
33831;DHT22;20137;48.834;8.732;2024-03-17T11:41:54;14.20;99.90
33831;DHT22;20137;48.834;8.732;2024-03-17T11:46:55;14.20;99.90
33831;DHT22;20137;48.834;8.732;2024-03-17T11:49:33;14.10;99.90
33831;DHT22;20137;48.834;8.732;2024-03-17T11:52:04;14.20;99.90
33831;DHT22;20137;48.834;8.732;2024-03-17T11:54:31;14.30;99.90
33831;DHT22;20137;48.834;8.732;2024-03-17T11:57:08;14.30;99.90
33831;DHT22;20137;48.834;8.732;2024-03-17T11:59:38;14.00;99.90
33831;DHT22;20137;48.834;8.732;2024-03-17T12:04:44;13.70;99.90
33831;DHT22;20137;48.834;8.732;2024-03-17T12:07:17;13.60;99.90
33831;DHT22;20137;48.834;8.732;2024-03-17T12:09:47;13.60;99.90
33831;DHT22;20137;48.834;8.732;2024-03-17T12:12:19;13.80;99.90
33831;DHT22;20137;48.834;8.732;2024-03-17T12:14:45;13.90;99.90
33831;DHT22;20137;48.834;8.732;2024-03-17T12:17:13;13.90;99.90
33831;DHT22;20137;48.834;8.732;2024-03-17T12:19:44;13.70;99.90
33831;DHT22;20137;48.834;8.732;2024-03-17T12:22:19;13.80;99.90
33831;DHT22;20137;48.834;8.732;2024-03-17T12:24:49;13.80;99.90
33831;DHT22;20137;48.834;8.732;2024-03-17T12:27:19;13.70;99.90
33831;DHT22;20137;48.834;8.732;2024-03-17T12:29:47;13.80;99.90
33831;DHT22;20137;48.834;8.732;2024-03-17T12:32:15;13.50;99.90
33831;DHT22;20137;48.834;8.732;2024-03-17T12:34:45;13.60;99.90
33831;DHT22;20137;48.834;8.732;2024-03-17T12:37:20;13.60;99.90
33831;DHT22;20137;48.834;8.732;2024-03-17T12:39:46;13.80;99.90
33831;DHT22;20137;48.834;8.732;2024-03-17T12:42:16;13.80;99.90
33831;DHT22;20137;48.834;8.732;2024-03-17T12:44:56;13.70;99.90
33831;DHT22;20137;48.834;8.732;2024-03-17T12:47:29;13.50;99.90
33831;DHT22;20137;48.834;8.732;2024-03-17T12:49:59;13.70;99.90
33831;DHT22;20137;48.834;8.732;2024-03-17T12:52:29;13.90;99.90
33831;DHT22;20137;48.834;8.732;2024-03-17T12:57:45;14.40;99.90
33831;DHT22;20137;48.834;8.732;2024-03-17T13:00:30;14.30;99.90
33831;DHT22;20137;48.834;8.732;2024-03-17T13:03:03;14.20;99.90
33831;DHT22;20137;48.834;8.732;2024-03-17T13:05:30;14.30;99.90
33831;DHT22;20137;48.834;8.732;2024-03-17T13:07:57;14.40;99.90
33831;DHT22;20137;48.834;8.732;2024-03-17T13:10:24;14.50;99.90
33831;DHT22;20137;48.834;8.732;2024-03-17T13:12:59;14.20;99.90
33831;DHT22;20137;48.834;8.732;2024-03-17T13:15:27;14.40;99.90
33831;DHT22;20137;48.834;8.732;2024-03-17T13:17:53;14.50;99.90
33831;DHT22;20137;48.834;8.732;2024-03-17T13:20:19;14.10;99.90
33831;DHT22;20137;48.834;8.732;2024-03-17T13:22:45;13.70;99.90
33831;DHT22;20137;48.834;8.732;2024-03-17T13:25:16;14.00;99.90
33831;DHT22;20137;48.834;8.732;2024-03-17T13:27:43;14.30;99.90
33831;DHT22;20137;48.834;8.732;2024-03-17T13:30:10;14.20;99.90
33831;DHT22;20137;48.834;8.732;2024-03-17T13:32:36;14.10;99.90
33831;DHT22;20137;48.834;8.732;2024-03-17T13:35:02;13.90;99.90
33831;DHT22;20137;48.834;8.732;2024-03-17T13:37:28;13.80;99.90
33831;DHT22;20137;48.834;8.732;2024-03-17T13:39:54;13.60;99.90
33831;DHT22;20137;48.834;8.732;2024-03-17T13:42:20;13.80;99.90
33831;DHT22;20137;48.834;8.732;2024-03-17T13:44:46;13.90;99.90
33831;DHT22;20137;48.834;8.732;2024-03-17T13:47:13;14.00;99.90
33831;DHT22;20137;48.834;8.732;2024-03-17T13:49:39;14.10;99.90
33831;DHT22;20137;48.834;8.732;2024-03-17T13:52:05;14.20;99.90
33831;DHT22;20137;48.834;8.732;2024-03-17T13:54:31;14.10;99.90
33831;DHT22;20137;48.834;8.732;2024-03-17T13:56:57;14.20;99.90
33831;DHT22;20137;48.834;8.732;2024-03-17T13:59:24;14.40;99.90
33831;DHT22;20137;48.834;8.732;2024-03-17T14:01:52;14.50;99.90
33831;DHT22;20137;48.834;8.732;2024-03-17T14:04:18;13.80;99.90
33831;DHT22;20137;48.834;8.732;2024-03-17T14:06:45;14.00;99.90
33831;DHT22;20137;48.834;8.732;2024-03-17T14:09:12;13.90;99.90
33831;DHT22;20137;48.834;8.732;2024-03-17T14:11:37;13.70;99.90
33831;DHT22;20137;48.834;8.732;2024-03-17T14:14:05;14.00;99.90
33831;DHT22;20137;48.834;8.732;2024-03-17T14:16:31;14.10;99.90
33831;DHT22;20137;48.834;8.732;2024-03-17T14:19:00;14.20;99.90
33831;DHT22;20137;48.834;8.732;2024-03-17T14:21:29;14.30;99.90
33831;DHT22;20137;48.834;8.732;2024-03-17T14:23:55;14.20;99.90
33831;DHT22;20137;48.834;8.732;2024-03-17T14:26:24;14.20;99.90
33831;DHT22;20137;48.834;8.732;2024-03-17T14:28:50;14.00;99.90
33831;DHT22;20137;48.834;8.732;2024-03-17T14:31:17;14.10;99.90
33831;DHT22;20137;48.834;8.732;2024-03-17T14:33:43;13.70;99.90
33831;DHT22;20137;48.834;8.732;2024-03-17T14:36:09;13.80;99.90
33831;DHT22;20137;48.834;8.732;2024-03-17T14:38:35;13.80;99.90
33831;DHT22;20137;48.834;8.732;2024-03-17T14:41:01;13.70;99.90
33831;DHT22;20137;48.834;8.732;2024-03-17T14:43:27;13.80;99.90
33831;DHT22;20137;48.834;8.732;2024-03-17T14:45:53;13.80;99.90
33831;DHT22;20137;48.834;8.732;2024-03-17T14:48:19;13.80;99.90
33831;DHT22;20137;48.834;8.732;2024-03-17T14:50:45;13.80;99.90
33831;DHT22;20137;48.834;8.732;2024-03-17T14:53:11;13.80;99.90
33831;DHT22;20137;48.834;8.732;2024-03-17T14:55:36;14.00;99.90
33831;DHT22;20137;48.834;8.732;2024-03-17T14:58:02;13.90;99.90
33831;DHT22;20137;48.834;8.732;2024-03-17T15:00:28;13.60;99.90
33831;DHT22;20137;48.834;8.732;2024-03-17T15:02:56;13.40;99.90
33831;DHT22;20137;48.834;8.732;2024-03-17T15:05:22;13.40;99.90
33831;DHT22;20137;48.834;8.732;2024-03-17T15:07:50;13.30;99.90
33831;DHT22;20137;48.834;8.732;2024-03-17T15:10:15;13.50;99.90
33831;DHT22;20137;48.834;8.732;2024-03-17T15:12:46;13.50;99.90
33831;DHT22;20137;48.834;8.732;2024-03-17T15:15:11;13.40;99.90
33831;DHT22;20137;48.834;8.732;2024-03-17T15:17:38;13.40;99.90
33831;DHT22;20137;48.834;8.732;2024-03-17T15:20:07;13.20;99.90
33831;DHT22;20137;48.834;8.732;2024-03-17T15:22:46;13.00;99.90
33831;DHT22;20137;48.834;8.732;2024-03-17T15:25:15;13.00;99.90
33831;DHT22;20137;48.834;8.732;2024-03-17T15:27:45;13.00;99.90
33831;DHT22;20137;48.834;8.732;2024-03-17T15:30:17;13.00;99.90
33831;DHT22;20137;48.834;8.732;2024-03-17T15:32:51;12.90;99.90
33831;DHT22;20137;48.834;8.732;2024-03-17T15:35:20;12.80;99.90
33831;DHT22;20137;48.834;8.732;2024-03-17T15:37:46;12.70;99.90
33831;DHT22;20137;48.834;8.732;2024-03-17T15:40:12;12.60;99.90
33831;DHT22;20137;48.834;8.732;2024-03-17T15:42:46;12.60;99.90
33831;DHT22;20137;48.834;8.732;2024-03-17T15:45:13;12.60;99.90
33831;DHT22;20137;48.834;8.732;2024-03-17T15:47:39;12.60;99.90
33831;DHT22;20137;48.834;8.732;2024-03-17T15:50:05;12.60;99.90
33831;DHT22;20137;48.834;8.732;2024-03-17T15:52:31;12.50;99.90
33831;DHT22;20137;48.834;8.732;2024-03-17T15:54:56;12.40;99.90
33831;DHT22;20137;48.834;8.732;2024-03-17T15:57:24;12.40;99.90